sensor_id;sensor_type;location;lat;lon;timestamp;pressure;altitude;pressure_sealevel;temperature;humidity
20027;BME280;10174;42.688;23.344;2023-01-27T00:00:08;94498.25;;;-0.03;91.15
20027;BME280;10174;42.688;23.344;2023-01-27T00:02:36;94524.53;;;0.17;91.25
20027;BME280;10174;42.688;23.344;2023-01-27T00:05:01;94527.81;;;0.12;91.35
20027;BME280;10174;42.688;23.344;2023-01-27T00:07:27;94529.59;;;0.19;91.32
20027;BME280;10174;42.688;23.344;2023-01-27T00:09:52;94530.19;;;0.21;91.09
20027;BME280;10174;42.688;23.344;2023-01-27T00:12:20;94409.09;;;-0.70;91.37
20027;BME280;10174;42.688;23.344;2023-01-27T00:15:04;94520.16;;;0.04;91.11
20027;BME280;10174;42.688;23.344;2023-01-27T00:17:30;94410.44;;;-0.61;91.50
20027;BME280;10174;42.688;23.344;2023-01-27T00:19:56;94483.34;;;-0.16;92.06
20027;BME280;10174;42.688;23.344;2023-01-27T00:22:21;94489.44;;;-0.15;92.10
20027;BME280;10174;42.688;23.344;2023-01-27T00:25:05;94492.94;;;-0.22;92.12
20027;BME280;10174;42.688;23.344;2023-01-27T00:27:31;94487.72;;;-0.28;93.31
20027;BME280;10174;42.688;23.344;2023-01-27T00:29:56;94496.34;;;-0.14;93.07
20027;BME280;10174;42.688;23.344;2023-01-27T00:32:21;94490.63;;;-0.11;92.95
20027;BME280;10174;42.688;23.344;2023-01-27T00:35:06;94492.84;;;-0.08;93.23
20027;BME280;10174;42.688;23.344;2023-01-27T00:37:31;94499.56;;;-0.12;92.26
20027;BME280;10174;42.688;23.344;2023-01-27T00:39:56;94504.09;;;0.06;92.88
20027;BME280;10174;42.688;23.344;2023-01-27T00:42:22;94459.66;;;-0.23;92.38
20027;BME280;10174;42.688;23.344;2023-01-27T00:44:47;94442.31;;;-0.37;92.23
20027;BME280;10174;42.688;23.344;2023-01-27T00:47:31;94478.06;;;-0.16;92.93
20027;BME280;10174;42.688;23.344;2023-01-27T00:49:56;94509.13;;;-0.11;92.64
20027;BME280;10174;42.688;23.344;2023-01-27T00:52:21;94509.59;;;0.04;92.67
20027;BME280;10174;42.688;23.344;2023-01-27T00:54:47;94510.78;;;0.08;92.33
20027;BME280;10174;42.688;23.344;2023-01-27T00:57:12;94442.03;;;-0.29;92.21
20027;BME280;10174;42.688;23.344;2023-01-27T00:59:37;94497.44;;;0.03;92.17
20027;BME280;10174;42.688;23.344;2023-01-27T01:02:03;94499.63;;;0.06;92.44
20027;BME280;10174;42.688;23.344;2023-01-27T01:04:28;94468.31;;;-0.15;93.00
20027;BME280;10174;42.688;23.344;2023-01-27T01:06:53;94466.03;;;-0.30;92.99
20027;BME280;10174;42.688;23.344;2023-01-27T01:09:19;94466.09;;;-0.19;93.07
20027;BME280;10174;42.688;23.344;2023-01-27T01:11:44;94471.38;;;-0.19;93.50
20027;BME280;10174;42.688;23.344;2023-01-27T01:14:09;94493.97;;;0.03;93.61
20027;BME280;10174;42.688;23.344;2023-01-27T01:16:35;94501.41;;;0.12;93.26
20027;BME280;10174;42.688;23.344;2023-01-27T01:19:00;94481.06;;;0.13;93.20
20027;BME280;10174;42.688;23.344;2023-01-27T01:21:26;94495.63;;;0.22;92.83
20027;BME280;10174;42.688;23.344;2023-01-27T01:23:51;94479.09;;;0.08;93.03
20027;BME280;10174;42.688;23.344;2023-01-27T01:26:17;94473.22;;;0.06;92.75
20027;BME280;10174;42.688;23.344;2023-01-27T01:28:43;94505.00;;;0.18;93.56
20027;BME280;10174;42.688;23.344;2023-01-27T01:31:12;94488.78;;;0.14;93.49
20027;BME280;10174;42.688;23.344;2023-01-27T01:33:37;94482.38;;;0.04;93.96
20027;BME280;10174;42.688;23.344;2023-01-27T01:36:08;94489.66;;;0.08;93.11
20027;BME280;10174;42.688;23.344;2023-01-27T01:38:34;94489.22;;;0.11;93.04
20027;BME280;10174;42.688;23.344;2023-01-27T01:40:59;94497.47;;;0.22;93.56
20027;BME280;10174;42.688;23.344;2023-01-27T01:43:25;94511.84;;;0.44;92.40
20027;BME280;10174;42.688;23.344;2023-01-27T01:45:54;94486.59;;;0.30;91.67
20027;BME280;10174;42.688;23.344;2023-01-27T01:48:29;94507.28;;;0.33;92.98
20027;BME280;10174;42.688;23.344;2023-01-27T01:51:12;94510.47;;;0.42;92.31
20027;BME280;10174;42.688;23.344;2023-01-27T01:56:17;94496.28;;;0.36;92.80
20027;BME280;10174;42.688;23.344;2023-01-27T01:58:46;94496.50;;;0.34;92.21
20027;BME280;10174;42.688;23.344;2023-01-27T02:01:13;94484.84;;;0.42;91.91
20027;BME280;10174;42.688;23.344;2023-01-27T02:03:41;94473.59;;;0.28;92.47
20027;BME280;10174;42.688;23.344;2023-01-27T02:06:08;94475.16;;;0.36;91.99
20027;BME280;10174;42.688;23.344;2023-01-27T02:08:38;94472.41;;;0.43;92.27
20027;BME280;10174;42.688;23.344;2023-01-27T02:11:05;94460.59;;;0.27;91.75
20027;BME280;10174;42.688;23.344;2023-01-27T02:13:31;94463.56;;;0.19;92.82
20027;BME280;10174;42.688;23.344;2023-01-27T02:15:57;94449.88;;;0.03;93.35
20027;BME280;10174;42.688;23.344;2023-01-27T02:18:22;94441.78;;;-0.02;94.19
20027;BME280;10174;42.688;23.344;2023-01-27T02:20:50;94439.75;;;0.00;93.54
20027;BME280;10174;42.688;23.344;2023-01-27T02:28:44;94408.34;;;-0.08;94.01
20027;BME280;10174;42.688;23.344;2023-01-27T02:31:10;94429.69;;;-0.10;93.69
20027;BME280;10174;42.688;23.344;2023-01-27T02:33:35;94421.66;;;-0.22;94.31
20027;BME280;10174;42.688;23.344;2023-01-27T02:36:11;94437.38;;;-0.08;94.64
20027;BME280;10174;42.688;23.344;2023-01-27T02:38:48;94417.34;;;-0.16;94.35
20027;BME280;10174;42.688;23.344;2023-01-27T02:41:27;94434.75;;;0.10;94.74
20027;BME280;10174;42.688;23.344;2023-01-27T02:43:55;94436.69;;;0.22;93.59
20027;BME280;10174;42.688;23.344;2023-01-27T02:46:21;94414.94;;;0.01;93.68
20027;BME280;10174;42.688;23.344;2023-01-27T02:48:46;94441.44;;;0.13;93.01
20027;BME280;10174;42.688;23.344;2023-01-27T02:51:12;94428.91;;;-0.17;93.72
20027;BME280;10174;42.688;23.344;2023-01-27T02:53:37;94430.63;;;-0.23;93.80
20027;BME280;10174;42.688;23.344;2023-01-27T02:56:03;94431.09;;;-0.32;94.07
20027;BME280;10174;42.688;23.344;2023-01-27T02:58:29;94426.63;;;-0.32;93.99
20027;BME280;10174;42.688;23.344;2023-01-27T03:00:54;94422.91;;;-0.24;94.82
20027;BME280;10174;42.688;23.344;2023-01-27T03:03:20;94446.19;;;0.04;94.65
20027;BME280;10174;42.688;23.344;2023-01-27T03:05:45;94449.00;;;0.09;93.93
20027;BME280;10174;42.688;23.344;2023-01-27T03:08:11;94442.84;;;0.15;93.65
20027;BME280;10174;42.688;23.344;2023-01-27T03:10:37;94436.38;;;0.11;93.67
20027;BME280;10174;42.688;23.344;2023-01-27T03:13:02;94430.88;;;0.13;93.53
20027;BME280;10174;42.688;23.344;2023-01-27T03:15:28;94418.41;;;0.20;94.04
20027;BME280;10174;42.688;23.344;2023-01-27T03:18:11;94433.84;;;0.23;93.82
20027;BME280;10174;42.688;23.344;2023-01-27T03:20:45;94396.91;;;0.16;93.01
20027;BME280;10174;42.688;23.344;2023-01-27T03:23:12;94421.56;;;0.29;92.88
20027;BME280;10174;42.688;23.344;2023-01-27T03:25:46;94388.91;;;0.05;93.25
20027;BME280;10174;42.688;23.344;2023-01-27T03:28:12;94411.72;;;-0.01;93.67
20027;BME280;10174;42.688;23.344;2023-01-27T03:30:39;94404.50;;;-0.12;94.82
20027;BME280;10174;42.688;23.344;2023-01-27T03:33:05;94407.59;;;-0.15;95.37
20027;BME280;10174;42.688;23.344;2023-01-27T03:35:33;94392.63;;;-0.22;95.53
20027;BME280;10174;42.688;23.344;2023-01-27T03:38:05;94357.84;;;-0.37;95.45
20027;BME280;10174;42.688;23.344;2023-01-27T03:40:49;94385.97;;;-0.24;95.90
20027;BME280;10174;42.688;23.344;2023-01-27T03:43:33;94354.75;;;-0.34;95.87
20027;BME280;10174;42.688;23.344;2023-01-27T03:46:18;94355.50;;;-0.27;95.51
20027;BME280;10174;42.688;23.344;2023-01-27T03:48:46;94362.84;;;-0.29;95.17
20027;BME280;10174;42.688;23.344;2023-01-27T03:51:14;94344.34;;;-0.47;95.38
20027;BME280;10174;42.688;23.344;2023-01-27T03:53:39;94376.19;;;-0.24;95.84
20027;BME280;10174;42.688;23.344;2023-01-27T03:56:05;94283.31;;;-0.76;95.41
20027;BME280;10174;42.688;23.344;2023-01-27T03:58:35;94370.25;;;-0.01;95.00
20027;BME280;10174;42.688;23.344;2023-01-27T04:01:22;94369.47;;;-0.01;94.94
20027;BME280;10174;42.688;23.344;2023-01-27T04:03:48;94379.72;;;-0.11;94.19
20027;BME280;10174;42.688;23.344;2023-01-27T04:06:35;94400.53;;;-0.22;95.25
20027;BME280;10174;42.688;23.344;2023-01-27T04:09:20;94413.91;;;-0.16;94.65
20027;BME280;10174;42.688;23.344;2023-01-27T04:11:46;94420.44;;;-0.01;94.62
20027;BME280;10174;42.688;23.344;2023-01-27T04:16:51;94451.47;;;0.04;92.73
20027;BME280;10174;42.688;23.344;2023-01-27T04:19:17;94451.00;;;0.14;92.28
20027;BME280;10174;42.688;23.344;2023-01-27T04:21:43;94457.22;;;0.20;91.97
20027;BME280;10174;42.688;23.344;2023-01-27T04:24:10;94437.84;;;0.26;92.02
20027;BME280;10174;42.688;23.344;2023-01-27T04:26:51;94356.25;;;-0.20;91.41
20027;BME280;10174;42.688;23.344;2023-01-27T04:29:19;94434.63;;;0.24;91.03
20027;BME280;10174;42.688;23.344;2023-01-27T04:31:44;94451.00;;;0.32;91.59
20027;BME280;10174;42.688;23.344;2023-01-27T04:34:11;94447.84;;;0.24;91.65
20027;BME280;10174;42.688;23.344;2023-01-27T04:36:36;94472.38;;;0.31;92.34
20027;BME280;10174;42.688;23.344;2023-01-27T04:39:02;94463.03;;;0.28;92.93
20027;BME280;10174;42.688;23.344;2023-01-27T04:41:28;94432.66;;;0.19;93.47
20027;BME280;10174;42.688;23.344;2023-01-27T04:43:53;94464.56;;;0.36;92.73
20027;BME280;10174;42.688;23.344;2023-01-27T04:46:18;94446.81;;;0.25;92.36
20027;BME280;10174;42.688;23.344;2023-01-27T04:48:44;94436.38;;;0.11;90.69
20027;BME280;10174;42.688;23.344;2023-01-27T04:51:09;94450.16;;;0.13;91.99
20027;BME280;10174;42.688;23.344;2023-01-27T04:53:35;94461.34;;;0.15;93.04
20027;BME280;10174;42.688;23.344;2023-01-27T04:56:03;94466.34;;;0.24;93.22
20027;BME280;10174;42.688;23.344;2023-01-27T04:58:29;94464.66;;;0.29;92.41
20027;BME280;10174;42.688;23.344;2023-01-27T05:00:55;94471.47;;;0.37;92.61
20027;BME280;10174;42.688;23.344;2023-01-27T05:03:20;94465.75;;;0.22;92.81
20027;BME280;10174;42.688;23.344;2023-01-27T05:05:45;94474.84;;;0.26;92.98
20027;BME280;10174;42.688;23.344;2023-01-27T05:08:11;94416.81;;;-0.25;93.40
20027;BME280;10174;42.688;23.344;2023-01-27T05:10:36;94451.78;;;0.14;93.32
20027;BME280;10174;42.688;23.344;2023-01-27T05:13:02;94452.38;;;0.16;93.42
20027;BME280;10174;42.688;23.344;2023-01-27T05:15:28;94459.13;;;0.12;92.64
20027;BME280;10174;42.688;23.344;2023-01-27T05:17:54;94446.50;;;0.14;93.90
20027;BME280;10174;42.688;23.344;2023-01-27T05:20:20;94431.84;;;0.00;93.37
20027;BME280;10174;42.688;23.344;2023-01-27T05:22:45;94437.13;;;0.19;93.83
20027;BME280;10174;42.688;23.344;2023-01-27T05:25:11;94452.53;;;0.22;93.12
20027;BME280;10174;42.688;23.344;2023-01-27T05:27:37;94460.03;;;0.25;92.56
20027;BME280;10174;42.688;23.344;2023-01-27T05:30:03;94449.66;;;0.05;93.72
20027;BME280;10174;42.688;23.344;2023-01-27T05:32:28;94410.97;;;-0.08;93.66
20027;BME280;10174;42.688;23.344;2023-01-27T05:34:53;94444.88;;;0.13;94.06
20027;BME280;10174;42.688;23.344;2023-01-27T05:37:19;94438.00;;;0.12;94.28
20027;BME280;10174;42.688;23.344;2023-01-27T05:39:44;94316.97;;;-0.72;93.51
20027;BME280;10174;42.688;23.344;2023-01-27T05:42:09;94395.09;;;-0.27;93.72
20027;BME280;10174;42.688;23.344;2023-01-27T05:44:35;94412.66;;;-0.14;94.20
20027;BME280;10174;42.688;23.344;2023-01-27T05:47:00;94401.88;;;-0.12;95.09
20027;BME280;10174;42.688;23.344;2023-01-27T05:49:26;94436.38;;;0.11;94.61
20027;BME280;10174;42.688;23.344;2023-01-27T05:51:51;94390.72;;;-0.14;94.25
20027;BME280;10174;42.688;23.344;2023-01-27T05:54:16;94394.47;;;-0.22;94.86
20027;BME280;10174;42.688;23.344;2023-01-27T05:56:42;94331.16;;;-0.73;93.26
20027;BME280;10174;42.688;23.344;2023-01-27T05:59:09;94443.25;;;-0.06;93.62
20027;BME280;10174;42.688;23.344;2023-01-27T06:01:35;94446.25;;;-0.21;94.11
20027;BME280;10174;42.688;23.344;2023-01-27T06:04:02;94460.69;;;-0.24;93.68
20027;BME280;10174;42.688;23.344;2023-01-27T06:06:30;94455.28;;;-0.10;94.35
20027;BME280;10174;42.688;23.344;2023-01-27T06:08:56;94432.53;;;-0.11;94.92
20027;BME280;10174;42.688;23.344;2023-01-27T06:11:22;94427.84;;;-0.09;94.37
20027;BME280;10174;42.688;23.344;2023-01-27T06:13:48;94441.16;;;0.21;93.81
20027;BME280;10174;42.688;23.344;2023-01-27T06:16:15;94451.22;;;0.12;92.91
20027;BME280;10174;42.688;23.344;2023-01-27T06:18:42;94455.31;;;0.08;93.01
20027;BME280;10174;42.688;23.344;2023-01-27T06:21:09;94441.34;;;0.01;92.70
20027;BME280;10174;42.688;23.344;2023-01-27T06:23:35;94458.50;;;-0.08;92.97
20027;BME280;10174;42.688;23.344;2023-01-27T06:26:02;94458.94;;;-0.11;93.47
20027;BME280;10174;42.688;23.344;2023-01-27T06:28:29;94344.28;;;-0.66;92.83
20027;BME280;10174;42.688;23.344;2023-01-27T06:30:55;94427.97;;;-0.23;93.11
20027;BME280;10174;42.688;23.344;2023-01-27T06:33:20;94405.56;;;-0.13;92.35
20027;BME280;10174;42.688;23.344;2023-01-27T06:35:46;94433.84;;;-0.21;92.03
20027;BME280;10174;42.688;23.344;2023-01-27T06:38:12;94452.81;;;0.13;92.16
20027;BME280;10174;42.688;23.344;2023-01-27T06:40:39;94450.91;;;0.02;91.90
20027;BME280;10174;42.688;23.344;2023-01-27T06:43:10;94458.31;;;0.12;91.63
20027;BME280;10174;42.688;23.344;2023-01-27T06:45:36;94463.16;;;0.15;91.79
20027;BME280;10174;42.688;23.344;2023-01-27T06:48:02;94465.59;;;0.16;91.25
20027;BME280;10174;42.688;23.344;2023-01-27T06:50:28;94468.41;;;0.22;90.91
20027;BME280;10174;42.688;23.344;2023-01-27T06:53:02;94469.28;;;0.15;90.59
20027;BME280;10174;42.688;23.344;2023-01-27T06:55:28;94484.91;;;0.35;90.44
20027;BME280;10174;42.688;23.344;2023-01-27T06:57:53;94483.66;;;0.38;90.09
20027;BME280;10174;42.688;23.344;2023-01-27T07:00:19;94471.28;;;0.39;90.24
20027;BME280;10174;42.688;23.344;2023-01-27T07:02:44;94467.66;;;0.33;90.51
20027;BME280;10174;42.688;23.344;2023-01-27T07:05:10;94468.09;;;0.11;89.19
20027;BME280;10174;42.688;23.344;2023-01-27T07:07:36;94478.34;;;0.20;89.84
20027;BME280;10174;42.688;23.344;2023-01-27T07:10:03;94469.66;;;-0.06;90.00
20027;BME280;10174;42.688;23.344;2023-01-27T07:12:29;94462.38;;;-0.11;90.33
20027;BME280;10174;42.688;23.344;2023-01-27T07:14:54;94471.59;;;0.05;90.68
20027;BME280;10174;42.688;23.344;2023-01-27T07:17:20;94474.13;;;0.19;90.81
20027;BME280;10174;42.688;23.344;2023-01-27T07:19:45;94476.16;;;0.35;91.75
20027;BME280;10174;42.688;23.344;2023-01-27T07:22:10;94470.75;;;0.48;89.91
20027;BME280;10174;42.688;23.344;2023-01-27T07:24:36;94483.28;;;0.53;87.88
20027;BME280;10174;42.688;23.344;2023-01-27T07:27:01;94420.53;;;0.30;88.55
20027;BME280;10174;42.688;23.344;2023-01-27T07:29:26;94396.97;;;0.28;88.21
20027;BME280;10174;42.688;23.344;2023-01-27T07:31:52;94460.66;;;0.76;87.51
20027;BME280;10174;42.688;23.344;2023-01-27T07:34:17;94473.13;;;1.05;87.59
20027;BME280;10174;42.688;23.344;2023-01-27T07:36:42;94469.28;;;0.71;87.49
20027;BME280;10174;42.688;23.344;2023-01-27T07:39:08;94481.69;;;0.70;87.50
20027;BME280;10174;42.688;23.344;2023-01-27T07:41:33;94475.22;;;0.66;87.56
20027;BME280;10174;42.688;23.344;2023-01-27T07:43:59;94450.78;;;0.52;88.07
20027;BME280;10174;42.688;23.344;2023-01-27T07:46:24;94481.44;;;0.91;87.68
20027;BME280;10174;42.688;23.344;2023-01-27T07:48:49;94487.16;;;1.06;87.28
20027;BME280;10174;42.688;23.344;2023-01-27T07:51:15;94449.34;;;0.68;85.36
20027;BME280;10174;42.688;23.344;2023-01-27T07:53:40;94469.28;;;0.71;85.10
20027;BME280;10174;42.688;23.344;2023-01-27T07:56:07;94451.97;;;0.57;85.01
20027;BME280;10174;42.688;23.344;2023-01-27T07:58:40;94477.94;;;0.78;84.74
20027;BME280;10174;42.688;23.344;2023-01-27T08:01:07;94469.84;;;0.73;84.45
20027;BME280;10174;42.688;23.344;2023-01-27T08:03:34;94491.63;;;0.57;86.24
20027;BME280;10174;42.688;23.344;2023-01-27T08:06:08;94433.88;;;0.16;86.27
20027;BME280;10174;42.688;23.344;2023-01-27T08:08:34;94484.13;;;0.72;86.34
20027;BME280;10174;42.688;23.344;2023-01-27T08:11:04;94489.75;;;0.39;86.21
20027;BME280;10174;42.688;23.344;2023-01-27T08:13:30;94479.31;;;0.62;86.79
20027;BME280;10174;42.688;23.344;2023-01-27T08:15:57;94432.72;;;0.49;85.03
20027;BME280;10174;42.688;23.344;2023-01-27T08:18:23;94369.81;;;0.21;84.02
20027;BME280;10174;42.688;23.344;2023-01-27T08:20:49;94484.50;;;1.06;83.50
20027;BME280;10174;42.688;23.344;2023-01-27T08:23:17;94448.69;;;0.73;83.43
20027;BME280;10174;42.688;23.344;2023-01-27T08:25:48;94485.41;;;1.00;84.46
20027;BME280;10174;42.688;23.344;2023-01-27T08:28:13;94463.84;;;0.66;83.52
20027;BME280;10174;42.688;23.344;2023-01-27T08:30:39;94486.56;;;0.85;82.82
20027;BME280;10174;42.688;23.344;2023-01-27T08:33:04;94479.53;;;0.79;82.90
20027;BME280;10174;42.688;23.344;2023-01-27T08:35:29;94463.03;;;0.65;82.68
20027;BME280;10174;42.688;23.344;2023-01-27T08:37:55;94486.59;;;0.67;82.77
20027;BME280;10174;42.688;23.344;2023-01-27T08:40:20;94499.38;;;0.51;83.62
20027;BME280;10174;42.688;23.344;2023-01-27T08:42:49;94464.13;;;0.39;84.93
20027;BME280;10174;42.688;23.344;2023-01-27T08:45:14;94446.19;;;0.04;84.70
20027;BME280;10174;42.688;23.344;2023-01-27T08:47:40;94478.09;;;0.28;84.51
20027;BME280;10174;42.688;23.344;2023-01-27T08:50:06;94486.72;;;0.35;84.49
20027;BME280;10174;42.688;23.344;2023-01-27T08:52:31;94492.19;;;0.59;84.65
20027;BME280;10174;42.688;23.344;2023-01-27T08:54:57;94473.47;;;0.42;83.94
20027;BME280;10174;42.688;23.344;2023-01-27T08:57:22;94490.41;;;0.71;84.08
20027;BME280;10174;42.688;23.344;2023-01-27T08:59:49;94453.28;;;0.66;84.88
20027;BME280;10174;42.688;23.344;2023-01-27T09:02:14;94469.28;;;0.52;84.91
20027;BME280;10174;42.688;23.344;2023-01-27T09:04:40;94500.44;;;0.69;84.55
20027;BME280;10174;42.688;23.344;2023-01-27T09:07:08;94437.72;;;0.39;84.41
20027;BME280;10174;42.688;23.344;2023-01-27T09:09:34;94500.69;;;0.61;85.21
20027;BME280;10174;42.688;23.344;2023-01-27T09:11:59;94483.06;;;0.55;85.14
20027;BME280;10174;42.688;23.344;2023-01-27T09:14:25;94488.97;;;0.57;86.28
20027;BME280;10174;42.688;23.344;2023-01-27T09:16:50;94484.16;;;0.65;85.69
20027;BME280;10174;42.688;23.344;2023-01-27T09:19:16;94497.38;;;0.84;85.79
20027;BME280;10174;42.688;23.344;2023-01-27T09:21:41;94454.22;;;0.53;85.11
20027;BME280;10174;42.688;23.344;2023-01-27T09:24:06;94355.06;;;-0.24;84.63
20027;BME280;10174;42.688;23.344;2023-01-27T09:26:32;94473.25;;;0.62;84.65
20027;BME280;10174;42.688;23.344;2023-01-27T09:28:57;94450.91;;;0.21;85.23
20027;BME280;10174;42.688;23.344;2023-01-27T09:31:23;94451.72;;;0.21;86.82
20027;BME280;10174;42.688;23.344;2023-01-27T09:33:48;94445.06;;;0.37;86.29
20027;BME280;10174;42.688;23.344;2023-01-27T09:36:17;94461.47;;;0.76;85.31
20027;BME280;10174;42.688;23.344;2023-01-27T09:38:57;94444.03;;;0.87;84.64
20027;BME280;10174;42.688;23.344;2023-01-27T09:49:25;94452.19;;;0.85;86.35
20027;BME280;10174;42.688;23.344;2023-01-27T10:23:27;94439.44;;;0.64;86.06
20027;BME280;10174;42.688;23.344;2023-01-27T10:28:46;94419.47;;;0.68;85.33
20027;BME280;10174;42.688;23.344;2023-01-27T10:31:25;94422.06;;;0.56;85.70
20027;BME280;10174;42.688;23.344;2023-01-27T10:33:55;94431.53;;;0.45;86.52
20027;BME280;10174;42.688;23.344;2023-01-27T10:36:30;94427.13;;;0.58;86.16
20027;BME280;10174;42.688;23.344;2023-01-27T10:47:32;94427.50;;;0.61;85.29
20027;BME280;10174;42.688;23.344;2023-01-27T10:50:06;94425.66;;;0.62;85.18
20027;BME280;10174;42.688;23.344;2023-01-27T10:52:39;94407.31;;;0.48;85.10
20027;BME280;10174;42.688;23.344;2023-01-27T10:55:18;94396.34;;;0.63;84.64
20027;BME280;10174;42.688;23.344;2023-01-27T11:00:34;94413.84;;;0.64;85.50
20027;BME280;10174;42.688;23.344;2023-01-27T11:03:20;94405.25;;;0.69;85.26
20027;BME280;10174;42.688;23.344;2023-01-27T11:05:51;94401.72;;;0.38;85.59
20027;BME280;10174;42.688;23.344;2023-01-27T11:08:28;94318.19;;;0.07;85.30
20027;BME280;10174;42.688;23.344;2023-01-27T11:10:58;94414.91;;;0.75;85.16
20027;BME280;10174;42.688;23.344;2023-01-27T11:13:43;94403.78;;;0.55;85.42
20027;BME280;10174;42.688;23.344;2023-01-27T11:16:16;94424.31;;;0.71;86.64
20027;BME280;10174;42.688;23.344;2023-01-27T11:18:42;94411.84;;;0.78;85.84
20027;BME280;10174;42.688;23.344;2023-01-27T11:21:25;94302.56;;;-0.13;85.14
20027;BME280;10174;42.688;23.344;2023-01-27T11:23:54;94353.63;;;0.17;87.49
20027;BME280;10174;42.688;23.344;2023-01-27T11:39:43;94344.25;;;0.03;85.56
20027;BME280;10174;42.688;23.344;2023-01-27T11:42:08;94362.41;;;0.11;87.05
20027;BME280;10174;42.688;23.344;2023-01-27T11:44:35;94369.78;;;0.09;86.59
20027;BME280;10174;42.688;23.344;2023-01-27T11:47:01;94373.34;;;0.15;86.99
20027;BME280;10174;42.688;23.344;2023-01-27T11:49:30;94392.34;;;0.24;86.45
20027;BME280;10174;42.688;23.344;2023-01-27T11:52:12;94391.69;;;0.47;86.79
20027;BME280;10174;42.688;23.344;2023-01-27T11:54:49;94294.78;;;-0.08;85.92
20027;BME280;10174;42.688;23.344;2023-01-27T11:57:19;94392.13;;;0.44;86.52
20027;BME280;10174;42.688;23.344;2023-01-27T11:59:47;94396.00;;;0.41;86.30
20027;BME280;10174;42.688;23.344;2023-01-27T12:02:26;94387.47;;;0.58;86.52
20027;BME280;10174;42.688;23.344;2023-01-27T12:05:02;94387.63;;;0.63;86.37
20027;BME280;10174;42.688;23.344;2023-01-27T12:07:43;94388.06;;;0.41;85.48
20027;BME280;10174;42.688;23.344;2023-01-27T12:10:22;94351.31;;;0.21;86.54
20027;BME280;10174;42.688;23.344;2023-01-27T12:12:48;94378.41;;;0.53;86.66
20027;BME280;10174;42.688;23.344;2023-01-27T12:15:15;94353.88;;;0.46;86.19
20027;BME280;10174;42.688;23.344;2023-01-27T12:17:45;94387.72;;;0.86;84.82
20027;BME280;10174;42.688;23.344;2023-01-27T12:22:46;94392.88;;;0.81;85.53
20027;BME280;10174;42.688;23.344;2023-01-27T12:25:17;94403.25;;;0.95;85.06
20027;BME280;10174;42.688;23.344;2023-01-27T12:27:50;94301.09;;;0.40;84.72
20027;BME280;10174;42.688;23.344;2023-01-27T12:30:26;94363.00;;;0.62;84.43
20027;BME280;10174;42.688;23.344;2023-01-27T12:32:53;94373.22;;;0.59;85.30
20027;BME280;10174;42.688;23.344;2023-01-27T12:35:26;94394.50;;;0.64;84.27
20027;BME280;10174;42.688;23.344;2023-01-27T12:38:00;94392.19;;;0.56;86.08
20027;BME280;10174;42.688;23.344;2023-01-27T12:40:27;94390.00;;;0.83;85.02
20027;BME280;10174;42.688;23.344;2023-01-27T12:43:22;94393.66;;;1.12;85.09
20027;BME280;10174;42.688;23.344;2023-01-27T12:48:30;94389.63;;;0.79;83.14
20027;BME280;10174;42.688;23.344;2023-01-27T12:51:14;94386.72;;;0.69;84.74
20027;BME280;10174;42.688;23.344;2023-01-27T12:53:40;94388.69;;;1.04;84.31
20027;BME280;10174;42.688;23.344;2023-01-27T12:56:22;94272.50;;;0.18;84.24
20027;BME280;10174;42.688;23.344;2023-01-27T12:58:55;94394.28;;;0.96;83.80
20027;BME280;10174;42.688;23.344;2023-01-27T13:01:23;94381.56;;;0.74;85.13
20027;BME280;10174;42.688;23.344;2023-01-27T13:03:53;94303.38;;;0.36;86.12
20027;BME280;10174;42.688;23.344;2023-01-27T13:06:26;94261.13;;;-0.13;87.26
20027;BME280;10174;42.688;23.344;2023-01-27T13:08:53;94349.75;;;0.50;86.82
20027;BME280;10174;42.688;23.344;2023-01-27T13:11:30;94346.41;;;0.43;87.51
20027;BME280;10174;42.688;23.344;2023-01-27T13:13:57;94378.69;;;0.76;87.31
20027;BME280;10174;42.688;23.344;2023-01-27T13:16:28;94380.72;;;0.62;87.45
20027;BME280;10174;42.688;23.344;2023-01-27T13:18:56;94283.06;;;0.06;87.46
20027;BME280;10174;42.688;23.344;2023-01-27T13:21:25;94387.81;;;0.92;88.18
20027;BME280;10174;42.688;23.344;2023-01-27T13:23:52;94386.06;;;1.04;88.08
20027;BME280;10174;42.688;23.344;2023-01-27T13:26:25;94247.09;;;0.05;87.45
20027;BME280;10174;42.688;23.344;2023-01-27T13:32:05;94388.66;;;0.62;88.71
20027;BME280;10174;42.688;23.344;2023-01-27T13:40:02;94394.25;;;0.35;89.33
20027;BME280;10174;42.688;23.344;2023-01-27T13:45:31;94394.34;;;0.28;90.09
20027;BME280;10174;42.688;23.344;2023-01-27T13:48:01;94394.41;;;0.22;88.74
20027;BME280;10174;42.688;23.344;2023-01-27T13:50:38;94334.25;;;-0.13;89.30
20027;BME280;10174;42.688;23.344;2023-01-27T13:53:10;94346.59;;;-0.07;89.32
20027;BME280;10174;42.688;23.344;2023-01-27T14:07:28;94408.13;;;0.49;88.54
20027;BME280;10174;42.688;23.344;2023-01-27T14:15:41;94281.16;;;-0.24;86.69
20027;BME280;10174;42.688;23.344;2023-01-27T14:18:23;94408.75;;;0.81;86.61
20027;BME280;10174;42.688;23.344;2023-01-27T14:20:53;94405.00;;;0.70;86.64
20027;BME280;10174;42.688;23.344;2023-01-27T14:24:11;94412.41;;;0.80;85.75
20027;BME280;10174;42.688;23.344;2023-01-27T14:26:38;94418.72;;;0.79;87.37
20027;BME280;10174;42.688;23.344;2023-01-27T14:32:22;94432.13;;;0.47;86.44
20027;BME280;10174;42.688;23.344;2023-01-27T14:40:30;94420.22;;;0.38;87.07
20027;BME280;10174;42.688;23.344;2023-01-27T14:50:48;94429.75;;;0.58;86.89
20027;BME280;10174;42.688;23.344;2023-01-27T15:06:48;94447.56;;;0.50;87.58
20027;BME280;10174;42.688;23.344;2023-01-27T15:09:57;94446.16;;;0.48;87.61
20027;BME280;10174;42.688;23.344;2023-01-27T15:27:58;94464.00;;;0.52;87.51
20027;BME280;10174;42.688;23.344;2023-01-27T15:30:27;94472.81;;;0.65;86.69
20027;BME280;10174;42.688;23.344;2023-01-27T15:32:54;94467.88;;;0.50;86.23
20027;BME280;10174;42.688;23.344;2023-01-27T15:35:28;94460.78;;;0.50;86.28
20027;BME280;10174;42.688;23.344;2023-01-27T15:37:58;94455.47;;;0.32;86.90
20027;BME280;10174;42.688;23.344;2023-01-27T15:40:25;94472.94;;;0.14;87.52
20027;BME280;10174;42.688;23.344;2023-01-27T15:43:02;94477.34;;;0.21;87.78